Latest Coastal Weather Observations for Wilsons Promontory

IDT60701

Issued at 5:33 am EDT Sunday 11 December 2016 (issued every 10 minutes, with the page automatically refreshed every 10 minutes)

About coastal observations | Map of coastal stations | Coastal observations for TAS | Marine services | Other Formats
Station Details ID: 085096 Name: WILSONS PROMONTORY LIGHTHOUSE Lat: -39.13 Lon: 146.42 Height: 95.0 m
Data from the previous 72 hours. | See also: Recent months at Wilsons Promontory
Date/Time
EDT
Temp
°C
Wind Pressure Rain since
9am
mm
Weather Cloud Vis
km
Sea
Height
m
Swell
Dir  Spd
kts
Gust
kts
hPa Trend Height
m
Period
s
Dir
11/05:30am 13.2 SW 19 21 1021.5 - 1.0 - - - - - - -
11/05:00am 13.3 SW 22 25 1021.3 - 1.0 - - - - - - -
11/04:30am 13.4 WSW 19 24 1021.4 - 1.0 - - - - - - -
11/04:00am 13.2 W 14 19 1021.3 - 1.0 - - - - - - -
11/03:30am 13.1 WSW 17 22 1021.3 - 1.0 - - - - - - -
11/03:00am 13.1 W 13 20 1021.2 - 1.0 - - - - - - -
11/02:30am 12.9 W 11 17 1021.7 - 1.0 - - - - - - -
11/02:00am 12.8 W 11 17 1021.7 - 1.0 - - - - - - -
11/01:30am 12.9 W 12 19 1021.9 - 1.0 - - - - - - -
11/01:06am 12.6 W 18 28 1022.0 - 0.8 - - - - - - -
11/01:00am 12.5 WSW 22 30 1021.8 - 0.8 - - - - - - -
11/12:50am 12.5 SW 21 29 1021.7 - 0.8 - - - - - - -
11/12:30am 12.4 W 16 21 1022.2 - 0.8 - - - - - - -
11/12:00am 12.3 W 19 25 1021.9 - 0.6 - - - - - - -
 
Date/Time
EDT
Temp
°C
Wind Pressure Rain since
9am
mm
Weather Cloud Vis
km
Sea
Height
m
Swell
Dir  Spd
kts
Gust
kts
hPa Trend Height
m
Period
s
Dir
10/11:51pm 12.4 W 20 33 1021.9 - 0.6 - - - - - - -
10/11:34pm 12.6 WSW 30 35 1021.5 - 0.6 - - - - - - -
10/11:30pm 12.8 W 17 27 1021.8 - 0.6 - - - - - - -
10/11:29pm 12.7 W 16 27 1021.9 - 0.6 - - - - - - -
10/11:00pm 12.2 W 20 27 1021.9 - 0.6 - - - - - - -
10/10:30pm 12.4 W 22 31 1021.8 - 0.4 - - - - - - -
10/10:22pm 12.6 W 19 31 1021.8 - 0.4 - - - - - - -
10/10:00pm 12.5 W 18 26 1022.0 - 0.2 - - - - - - -
10/09:36pm 13.3 W 15 30 1021.7 - 0.0 - - - - - - -
10/09:30pm 13.3 W 17 24 1021.8 - 0.0 - - - - - - -
10/09:00pm 13.1 W 16 22 1021.6 - 0.0 - - - - - - -
10/08:30pm 12.5 W 21 28 1021.3 - 0.0 - - - - - - -
10/08:03pm 13.5 W 17 30 1021.2 - 0.0 - - - - - - -
10/08:00pm 13.6 W 17 24 1021.2 - 0.0 - - - - - - -
10/07:30pm 13.7 W 16 29 1020.8 - 0.0 - - - - - - -
10/07:06pm 13.9 W 17 27 1020.7 - 0.0 - - - - - - -
10/07:00pm 14.0 W 16 23 1020.7 - 0.0 - - - - - - -
10/06:30pm 14.1 W 18 31 1020.6 - 0.0 - - - - - - -
10/06:19pm 14.0 W 17 27 1020.6 - 0.0 - - - - - - -
10/06:00pm 14.1 W 19 27 1020.3 - 0.0 - - - - - - -
10/05:30pm 14.4 W 19 28 1020.4 - 0.0 - - - - - - -
10/05:00pm 15.0 W 19 28 1020.7 - 0.0 - - - - - - -
10/04:30pm 15.7 W 18 25 1020.8 - 0.0 - - - - - - -
10/04:00pm 14.8 W 18 28 1020.7 - 0.0 - - - - - - -
10/03:30pm 15.6 W 15 30 1021.1 - 0.0 - - - - - - -
10/03:12pm 15.8 W 19 29 1021.2 - 0.0 - - - - - - -
10/03:00pm 15.9 W 21 29 1021.0 - 0.0 - - - - - - -
10/02:30pm 15.7 W 18 27 1021.6 - 0.0 - - - - - - -
10/02:00pm 16.0 W 23 29 1021.6 - 0.0 - - - - - - -
10/01:30pm 16.2 W 19 26 1021.7 - 0.0 - - - - - - -
10/01:00pm 16.0 W 20 27 1021.9 - 0.0 - - - - - - -
10/12:30pm 15.5 W 20 27 1021.9 - 0.0 - - - - - - -
10/12:00pm 15.9 W 16 24 1022.0 - 0.0 - - - - - - -
10/11:30am 14.8 W 20 26 1022.1 - 0.0 - - - - - - -
10/11:00am 15.1 W 16 24 1022.1 - 0.0 - - - - - - -
10/10:30am 14.2 W 17 23 1022.2 - 0.0 - - - - - - -
10/10:00am 14.8 W 18 23 1022.0 - 0.0 - - - - - - -
10/09:30am 14.3 W 18 23 1022.2 - 0.0 - - - - - - -
10/09:00am 13.9 W 14 20 1021.9 - 0.0 - - - - - - -
10/08:30am 13.6 W 14 19 1021.8 - 0.0 - - - - - - -
10/08:00am 13.1 W 15 21 1021.6 - 0.0 - - - - - - -
10/07:30am 12.7 W 15 20 1021.1 - 0.0 - - - - - - -
10/07:00am 12.3 W 15 22 1020.8 - 0.0 - - - - - - -
10/06:30am 12.7 W 17 24 1020.1 - 0.0 - - - - - - -
10/06:00am 12.5 W 19 24 1019.7 - 0.0 - - - - - - -
10/05:30am 12.6 W 20 27 1019.4 - 0.0 - - - - - - -
10/05:06am 12.7 W 17 27 1019.4 - 0.0 - - - - - - -
10/05:00am 12.7 W 17 25 1019.5 - 0.0 - - - - - - -
10/04:30am 12.5 W 21 29 1019.0 - 0.0 - - - - - - -
10/04:19am 12.6 W 20 30 1019.0 - 0.0 - - - - - - -
10/04:00am 12.4 W 22 29 1018.9 - 0.0 - - - - - - -
10/03:40am 12.2 W 20 30 1018.8 - 0.0 - - - - - - -
10/03:30am 11.9 WSW 25 32 1018.9 - 0.0 - - - - - - -
10/03:14am 11.9 WSW 32 35 1018.5 - 0.0 - - - - - - -
10/03:10am 12.1 W 21 31 1018.6 - 0.0 - - - - - - -
10/03:00am 12.4 W 20 26 1018.8 - 0.0 - - - - - - -
10/02:30am 12.5 W 17 25 1019.0 - 0.0 - - - - - - -
10/02:00am 12.4 W 20 32 1018.8 - 0.0 - - - - - - -
10/01:30am 12.5 WSW 31 35 1018.8 - 0.0 - - - - - - -
10/01:00am 12.5 WSW 32 37 1019.0 - 0.0 - - - - - - -
10/12:59am 12.4 WSW 33 37 1019.0 - 0.0 - - - - - - -
10/12:57am 12.5 W 21 34 1019.3 - 0.0 - - - - - - -
10/12:50am 12.4 W 22 37 1019.4 - 0.0 - - - - - - -
10/12:44am 12.4 WSW 34 37 1019.0 - 0.0 - - - - - - -
10/12:30am 12.4 W 23 33 1019.7 - 0.0 - - - - - - -
10/12:08am 12.3 WSW 23 34 1019.5 - 0.0 - - - - - - -
10/12:05am 12.3 W 21 37 1019.6 - 0.0 - - - - - - -
10/12:00am 12.1 WSW 32 42 1019.3 - 0.0 - - - - - - -
 
Date/Time
EDT
Temp
°C
Wind Pressure Rain since
9am
mm
Weather Cloud Vis
km
Sea
Height
m
Swell
Dir  Spd
kts
Gust
kts
hPa Trend Height
m
Period
s
Dir
09/11:30pm 12.3 WSW 29 37 1019.0 - 0.0 - - - - - - -
09/11:24pm 12.4 WSW 27 37 1019.1 - 0.0 - - - - - - -
09/11:00pm 12.4 WSW 28 37 1018.8 - 0.0 - - - - - - -
09/10:30pm 12.4 WSW 29 41 1018.8 - 0.0 - - - - - - -
09/10:07pm 12.3 W 29 42 1018.4 - 0.0 - - - - - - -
09/10:06pm 12.3 W 27 43 1018.5 - 0.0 - - - - - - -
09/10:00pm 12.2 WSW 38 45 1018.1 - 0.0 - - - - - - -
09/09:30pm 12.2 WSW 34 48 1017.8 - 0.0 - - - - - - -
09/09:09pm 12.1 WSW 44 47 1017.1 - 0.0 - - - - - - -
09/09:00pm 12.6 W 30 43 1017.5 - 0.0 - - - - - - -
09/08:30pm 12.3 WSW 34 45 1017.0 - 0.0 - - - - - - -
09/08:16pm 12.4 WSW 35 45 1017.1 - 0.0 - - - - - - -
09/08:06pm 12.3 WSW 40 44 1016.6 - 0.0 - - - - - - -
09/08:00pm 12.4 W 27 43 1016.7 - 0.0 - - - - - - -
09/07:56pm 12.4 W 25 35 1017.1 - 0.0 - - - - - - -
09/07:51pm 12.5 W 26 49 1017.1 - 0.0 - - - - - - -
09/07:30pm 12.2 WSW 37 49 1015.6 - 0.0 - - - - - - -
09/07:25pm 12.5 W 34 51 1015.7 - 0.0 - - - - - - -
09/07:22pm 12.7 WSW 34 52 1015.8 - 0.0 - - - - - - -
09/07:09pm 12.5 WSW 47 52 1015.2 - 0.0 - - - - - - -
09/07:00pm 12.8 W 34 46 1015.5 - 0.0 - - - - - - -
09/06:30pm 12.8 W 34 48 1015.1 - 0.0 - - - - - - -
09/06:00pm 12.7 W 35 49 1014.6 - 0.0 - - - - - - -
09/05:45pm 12.9 WSW 40 50 1014.2 - 0.0 - - - - - - -
09/05:43pm 13.0 WSW 43 50 1013.9 - 0.0 - - - - - - -
09/05:30pm 12.9 W 31 42 1014.6 - 0.0 - - - - - - -
09/05:00pm 12.6 W 34 44 1014.2 - 0.0 - - - - - - -
09/04:30pm 13.0 W 33 49 1013.6 - 0.0 - - - - - - -
09/04:01pm 13.3 W 32 42 1014.5 - 0.0 - - - - - - -
09/04:00pm 13.3 W 33 42 1014.5 - 0.0 - - - - - - -
09/03:37pm 12.9 W 26 50 1014.2 - 0.0 - - - - - - -
09/03:30pm 12.7 WSW 37 49 1013.7 - 0.0 - - - - - - -
09/03:12pm 13.0 W 35 52 1013.7 - 0.0 - - - - - - -
09/03:07pm 13.3 W 35 52 1013.6 - 0.0 - - - - - - -
09/03:04pm 12.9 WSW 47 52 1013.3 - 0.0 - - - - - - -
09/03:00pm 13.1 W 35 47 1013.4 - 0.0 - - - - - - -
09/02:38pm 12.6 WSW 40 50 1013.8 - 0.0 - - - - - - -
09/02:30pm 12.3 WSW 41 50 1013.3 - 0.0 - - - - - - -
09/02:00pm 12.8 WSW 40 52 1013.0 - 0.0 - - - - - - -
09/01:44pm 13.3 WSW 39 49 1013.3 - 0.0 - - - - - - -
09/01:39pm 12.7 WSW 45 49 1013.0 - 0.0 - - - - - - -
09/01:30pm 13.3 W 34 48 1013.4 - 0.0 - - - - - - -
09/01:00pm 12.8 W 34 45 1012.8 - 0.0 - - - - - - -
09/12:30pm 12.7 W 31 42 1012.6 - 0.0 - - - - - - -
09/12:27pm 12.9 WSW 33 43 1012.7 - 0.0 - - - - - - -
09/12:18pm 12.7 WSW 39 43 1012.5 - 0.0 - - - - - - -
09/12:13pm 12.7 W 27 44 1013.0 - 0.0 - - - - - - -
09/12:10pm 12.4 W 27 45 1012.7 - 0.0 - - - - - - -
09/12:01pm 12.4 WSW 41 51 1012.0 - 0.0 - - - - - - -
09/12:00pm 12.3 WSW 42 51 1011.9 - 0.0 - - - - - - -
09/11:30am 12.2 WSW 39 51 1011.2 - 0.0 - - - - - - -
09/11:00am 12.2 WSW 40 50 1011.1 - 0.0 - - - - - - -
09/10:55am 12.0 SW 37 47 1011.0 - 0.0 - - - - - - -
09/10:51am 11.3 SW 37 43 1011.1 - 0.0 - - - - - - -
09/10:44am 11.0 SW 26 48 1010.9 - 0.0 - - - - - - -
09/10:32am 12.0 WSW 38 50 1010.6 - 0.0 - - - - - - -
09/10:30am 12.2 WSW 37 45 1011.0 - 0.0 - - - - - - -
09/10:18am 12.1 WSW 36 46 1010.7 - 0.0 - - - - - - -
09/10:09am 12.5 WSW 42 45 1010.4 - 0.0 - - - - - - -
09/10:02am 11.8 W 29 48 1011.0 - 0.0 - - - - - - -
09/10:00am 11.5 W 30 48 1010.9 - 0.0 - - - - - - -
09/09:57am 11.6 W 29 50 1010.8 - 0.0 - - - - - - -
09/09:37am 11.6 WSW 46 56 1009.8 - 0.0 - - - - - - -
09/09:30am 10.7 SW 48 57 1008.9 - 0.0 - - - - - - -
09/09:16am 12.0 WSW 47 57 1008.3 - 0.0 - - - - - - -
09/09:00am 12.0 WSW 46 53 1008.8 - 9.2 - - - - - - -
09/08:48am 11.9 WSW 46 49 1008.7 - 9.2 - - - - - - -
09/08:30am 10.9 W 35 52 1008.9 - 9.2 - - - - - - -
09/08:28am 11.1 W 36 52 1008.6 - 9.2 - - - - - - -
09/08:27am 11.3 W 37 52 1008.6 - 9.2 - - - - - - -
09/08:16am 10.4 SW 52 56 1007.4 - 9.2 - - - - - - -
09/08:00am 11.7 WSW 39 50 1007.7 - 9.2 - - - - - - -
09/07:53am 12.0 WSW 40 51 1007.5 - 9.2 - - - - - - -
09/07:47am 12.0 WSW 38 53 1007.7 - 9.2 - - - - - - -
09/07:30am 11.6 WSW 51 61 1005.8 - 9.2 - - - - - - -
09/07:00am 11.3 SW 43 54 1006.3 - 9.2 - - - - - - -
09/06:42am 10.9 WSW 38 51 1006.4 - 9.2 - - - - - - -
09/06:36am 10.8 WSW 38 61 1006.2 - 9.2 - - - - - - -
09/06:30am 10.3 WSW 52 63 1004.9 - 9.2 - - - - - - -
09/06:00am 11.4 WSW 53 63 1004.3 - 9.2 - - - - - - -
09/05:39am 11.1 WSW 53 66 1003.0 - 9.2 - - - - - - -
09/05:30am 11.8 WSW 49 55 1003.8 - 9.2 - - - - - - -
09/05:18am 11.1 SW 50 62 1003.0 - 9.2 - - - - - - -
09/05:16am 10.9 SW 53 62 1002.7 - 9.2 - - - - - - -
09/05:14am 11.2 WSW 33 62 1002.5 - 9.2 - - - - - - -
09/05:00am 12.1 WSW 47 61 1003.2 - 9.2 - - - - - - -
09/04:52am 11.7 WSW 49 60 1002.7 - 9.2 - - - - - - -
09/04:34am 11.8 WSW 56 60 1002.3 - 9.2 - - - - - - -
09/04:30am 12.0 WSW 39 52 1003.2 - 9.2 - - - - - - -
09/04:24am 11.4 WSW 36 57 1003.2 - 9.2 - - - - - - -
09/04:00am 12.0 WSW 48 60 1002.3 - 9.2 - - - - - - -
09/03:52am 11.9 WSW 50 60 1001.6 - 9.2 - - - - - - -
09/03:48am 11.8 WSW 54 59 1001.6 - 9.2 - - - - - - -
09/03:40am 11.7 WSW 42 66 1001.9 - 9.2 - - - - - - -
09/03:39am 11.8 WSW 56 66 1001.8 - 9.2 - - - - - - -
09/03:32am 11.5 WSW 61 66 1000.7 - 9.2 - - - - - - -
09/03:30am 11.9 WSW 48 64 1000.9 - 9.2 - - - - - - -
09/03:23am 12.1 WSW 45 55 1002.0 - 9.2 - - - - - - -
09/03:22am 12.0 WSW 48 55 1001.5 - 9.2 - - - - - - -
09/03:18am 12.3 W 36 59 1001.9 - 9.2 - - - - - - -
09/03:01am 12.2 WSW 49 59 1001.3 - 9.2 - - - - - - -
09/03:00am 12.0 WSW 50 59 1001.1 - 9.2 - - - - - - -
09/02:55am 12.0 WSW 53 56 1001.2 - 9.2 - - - - - - -
09/02:37am 12.0 W 39 59 1001.4 - 9.2 - - - - - - -
09/02:30am 12.0 WSW 50 62 1001.0 - 9.2 - - - - - - -
09/02:17am 11.8 WSW 51 62 1000.4 - 9.2 - - - - - - -
09/02:00am 12.1 W 39 55 1001.2 - 9.0 - - - - - - -
09/01:30am 12.7 W 39 54 1001.1 - 9.0 - - - - - - -
09/01:00am 12.4 W 32 48 1001.9 - 9.0 - - - - - - -
09/12:30am 13.1 W 34 44 1001.4 - 9.0 - - - - - - -
09/12:00am 13.0 W 31 46 1001.0 - 9.0 - - - - - - -
 
Date/Time
EDT
Temp
°C
Wind Pressure Rain since
9am
mm
Weather Cloud Vis
km
Sea
Height
m
Swell
Dir  Spd
kts
Gust
kts
hPa Trend Height
m
Period
s
Dir
08/11:50pm 13.1 W 27 45 1001.3 - 9.0 - - - - - - -
08/11:30pm 13.1 W 38 52 1000.8 - 9.0 - - - - - - -
08/11:00pm 13.0 W 37 50 999.9 - 9.0 - - - - - - -
08/10:30pm 13.1 W 37 51 999.7 - 9.0 - - - - - - -
08/10:00pm 13.3 W 38 52 998.9 - 9.0 - - - - - - -
08/09:30pm 13.6 W 38 50 998.5 - 9.0 - - - - - - -
08/09:23pm 13.8 W 40 50 998.8 - 9.0 - - - - - - -
08/09:18pm 13.7 W 44 49 998.4 - 9.0 - - - - - - -
08/09:00pm 13.8 W 33 49 998.1 - 9.0 - - - - - - -
08/08:30pm 13.7 W 33 47 998.3 - 9.0 - - - - - - -
08/08:00pm 13.6 W 35 49 997.2 - 9.0 - - - - - - -
08/07:30pm 13.3 W 36 48 996.8 - 8.8 - - - - - - -
08/07:28pm 13.6 W 37 48 996.7 - 8.8 - - - - - - -
08/07:27pm 13.7 W 40 48 996.3 - 8.8 - - - - - - -
08/07:20pm 14.7 W 29 53 996.5 - 8.2 - - - - - - -
08/07:00pm 14.9 W 41 59 995.9 - 8.2 - - - - - - -
08/06:30pm 15.2 W 41 60 995.1 - 8.2 - - - - - - -
08/06:00pm 15.4 W 45 62 994.4 - 8.2 - - - - - - -
08/05:30pm 15.9 W 46 64 993.8 - 8.2 - - - - - - -
08/05:00pm 16.2 W 43 60 993.8 - 8.2 - - - - - - -
08/04:30pm 16.5 W 44 63 993.4 - 8.2 - - - - - - -
08/04:23pm 16.4 W 48 63 993.0 - 8.2 - - - - - - -
08/04:00pm 16.6 W 36 52 993.8 - 8.2 - - - - - - -
08/03:32pm 17.8 W 35 46 993.9 - 8.2 - - - - - - -
08/03:30pm 17.8 W 38 46 993.5 - 8.2 - - - - - - -
08/03:00pm 17.4 W 26 45 993.6 - 8.2 - - - - - - -
08/02:31pm 16.8 W 23 36 994.5 - 8.2 - - - - - - -
08/02:30pm 16.7 W 26 36 994.2 - 8.2 - - - - - - -
08/02:01pm 16.0 W 15 36 994.6 - 8.2 - - - - - - -
08/02:00pm 16.0 W 16 36 994.8 - 8.2 - - - - - - -
08/01:30pm 15.0 W 27 37 994.4 - 8.0 - - - - - - -
08/01:00pm 14.9 W 22 32 994.9 - 8.0 - - - - - - -
08/12:30pm 14.5 W 27 41 995.0 - 7.8 - - - - - - -
08/12:12pm 16.9 W 22 41 993.9 - 7.6 - - - - - - -
08/12:00pm 19.2 NNW 18 38 994.0 - 7.6 - - - - - - -
08/11:52am 19.3 N 15 38 994.1 - 7.6 - - - - - - -
08/11:30am 18.7 N 15 28 994.8 - 6.8 - - - - - - -
08/11:02am 19.4 N 20 51 993.9 - 5.8 - - - - - - -
08/11:00am 19.4 N 19 39 994.8 - 5.6 - - - - - - -
08/10:30am 18.7 N 19 38 994.5 - 5.0 - - - - - - -
08/10:13am 18.4 N 16 34 995.6 - 3.8 - - - - - - -
08/10:00am 17.5 NNE 16 24 995.7 - 3.2 - - - - - - -
08/09:35am 18.0 N 15 27 996.6 - 1.8 - - - - - - -
08/09:30am 18.1 N 12 22 997.0 - 1.4 - - - - - - -
08/09:00am 17.9 NNW 6 10 997.5 - 2.4 - - - - - - -
08/08:30am 16.2 NNE 8 11 997.6 - 1.6 - - - - - - -
08/08:00am 17.2 N 13 23 997.9 - 1.4 - - - - - - -
08/07:32am 19.6 N 15 27 998.4 - 1.2 - - - - - - -
08/07:30am 19.6 N 14 27 998.5 - 1.2 - - - - - - -
08/07:00am 16.0 NNE 11 16 999.4 - 0.4 - - - - - - -
08/06:30am 15.4 NE 15 17 998.9 - 0.2 - - - - - - -
08/06:00am 15.5 NE 15 18 998.8 - 0.0 - - - - - - -

Other Formats:

Comma delimited format used in spreadsheet applications
http://www.bom.gov.au/fwo/IDT60701/IDT60701.94893.axf

JavaScript Object Notation format (JSON) in row-major order
http://www.bom.gov.au/fwo/IDT60701/IDT60701.94893.json